Time;durP1;ratioP1;P1;durP2;ratioP2;P2;SDS_P1;SDS_P2;PMS_P1;PMS_P2;Temp;Humidity;BMP_temperature;BMP_pressure;BME280_temperature;BME280_humidity;BME280_pressure;Samples;Min_cycle;Max_cycle;Signal;HPM_P1;HPM_P2
2021/10/30 00:01:02;;;;;;;7.43;3.78;;;;;;;18.17;52.58;99922.22;4145576;28;19947;-61
2021/10/30 00:03:05;;;;;;;7.22;3.70;;;;;;;18.12;52.98;99909.28;4145667;28;20050;-61
2021/10/30 00:05:13;;;;;;;6.50;4.00;;;;;;;18.16;52.67;99901.88;4145528;28;20049;-61
2021/10/30 00:07:15;;;;;;;5.93;3.67;;;;;;;18.19;52.47;99905.16;4145562;28;20111;-61
2021/10/30 00:09:17;;;;;;;6.13;3.80;;;;;;;18.17;52.37;99900.91;4146127;28;20057;-61
2021/10/30 00:11:21;;;;;;;6.57;3.80;;;;;;;18.15;52.54;99890.41;4145612;28;20045;-61
2021/10/30 00:13:24;;;;;;;6.72;3.75;;;;;;;18.15;52.96;99879.75;4146001;28;20116;-60
2021/10/30 00:15:27;;;;;;;5.65;3.47;;;;;;;18.12;52.69;99871.19;4145698;28;20049;-59
2021/10/30 00:17:29;;;;;;;7.53;4.00;;;;;;;18.10;52.96;99876.59;4145636;28;20092;-60
2021/10/30 00:19:31;;;;;;;5.88;3.75;;;;;;;18.17;52.80;99890.28;4145700;28;20096;-59
2021/10/30 00:21:33;;;;;;;6.20;3.85;;;;;;;18.16;52.79;99886.75;4145454;28;20038;-59
2021/10/30 00:23:35;;;;;;;;;;;;;;;18.14;53.13;99883.38;4145949;28;20085;-59
2021/10/30 00:25:37;;;;;;;6.78;3.90;;;;;;;18.11;52.98;99880.97;4145394;28;19925;-60
2021/10/30 00:27:41;;;;;;;6.00;3.50;;;;;;;18.09;53.04;99874.91;4145519;28;20053;-60
2021/10/30 00:29:43;;;;;;;5.78;4.00;;;;;;;18.10;52.78;99865.97;4144467;28;20057;-59
2021/10/30 00:31:45;;;;;;;;;;;;;;;18.10;53.26;99875.78;4145650;28;20612;-59
2021/10/30 00:33:47;;;;;;;6.15;3.70;;;;;;;18.06;52.75;99869.84;4145460;28;20574;-60
2021/10/30 00:35:49;;;;;;;;;;;;;;;18.07;53.25;99866.22;4145914;28;20050;-60
2021/10/30 00:37:51;;;;;;;6.18;4.07;;;;;;;18.02;53.10;99863.06;4149663;28;19929;-60
2021/10/30 00:39:53;;;;;;;;;;;;;;;18.04;53.04;99869.97;4145920;28;20042;-60
2021/10/30 00:41:56;;;;;;;5.95;3.55;;;;;;;18.03;52.78;99862.09;4145054;28;19969;-60
2021/10/30 00:44:06;;;;;;;6.45;3.90;;;;;;;18.04;52.97;99856.69;4145368;28;20102;-60
2021/10/30 00:46:08;;;;;;;6.50;3.95;;;;;;;17.96;53.11;99843.16;4145602;28;20046;-60
2021/10/30 00:48:10;;;;;;;6.13;3.85;;;;;;;18.02;52.83;99845.31;4144881;28;20096;-61
2021/10/30 00:50:13;;;;;;;;;;;;;;;18.03;53.17;99854.13;4145548;28;20116;-61
2021/10/30 00:52:16;;;;;;;5.68;3.50;;;;;;;18.00;52.70;99851.72;4145300;28;19921;-60
2021/10/30 00:54:18;;;;;;;6.82;3.60;;;;;;;18.02;52.99;99847.09;4145349;28;20050;-60
2021/10/30 00:56:21;;;;;;;6.32;3.67;;;;;;;17.91;52.73;99821.38;4146683;28;20049;-60
2021/10/30 00:58:23;;;;;;;6.53;3.55;;;;;;;18.02;52.63;99825.81;4147687;28;20042;-61
2021/10/30 01:00:25;;;;;;;6.75;3.97;;;;;;;17.97;53.17;99834.19;4147998;28;20041;-61
2021/10/30 01:02:30;;;;;;;5.57;3.70;;;;;;;17.98;53.12;99827.91;4147869;28;20042;-61
2021/10/30 01:04:33;;;;;;;6.15;3.40;;;;;;;18.00;52.76;99836.59;4148394;28;20114;-61
2021/10/30 01:06:38;;;;;;;6.90;3.80;;;;;;;17.99;53.29;99834.06;4148287;28;20494;-60
2021/10/30 01:08:41;;;;;;;5.70;3.58;;;;;;;17.98;53.13;99832.38;4148047;28;20037;-60
2021/10/30 01:10:43;;;;;;;5.97;3.40;;;;;;;17.97;52.96;99826.22;4148316;28;20517;-60
2021/10/30 01:12:45;;;;;;;;;;;;;;;17.98;53.07;99829.72;4148248;28;20104;-60
2021/10/30 01:14:48;;;;;;;5.72;3.30;;;;;;;17.91;53.14;99821.38;4148150;28;20285;-60
2021/10/30 01:17:03;;;;;;;5.68;3.30;;;;;;;17.96;53.33;99816.53;4148000;28;20045;-61
2021/10/30 01:19:05;;;;;;;5.55;3.42;;;;;;;17.94;52.81;99810.47;4147759;28;20058;-60
2021/10/30 01:21:07;;;;;;;5.70;3.45;;;;;;;17.93;53.22;99811.41;4147841;28;20053;-60
2021/10/30 01:23:09;;;;;;;;;;;;;;;17.94;53.04;99810.47;4148016;28;20513;-60
2021/10/30 01:25:11;;;;;;;5.88;3.60;;;;;;;17.92;52.99;99812.38;4147963;28;19921;-60
2021/10/30 01:27:17;;;;;;;;;;;;;;;17.91;53.51;99812.53;4148275;28;20049;-60
2021/10/30 01:29:20;;;;;;;6.20;3.47;;;;;;;17.60;53.29;99751.19;4147389;28;19922;-61
2021/10/30 01:31:23;;;;;;;5.45;3.33;;;;;;;17.91;52.85;99808.06;4147614;28;20088;-60
2021/10/30 01:33:25;;;;;;;5.95;3.58;;;;;;;17.91;53.12;99799.22;4147385;28;20103;-60
2021/10/30 01:35:30;;;;;;;;;;;;;;;17.91;53.59;99809.88;4148290;28;20481;-61
2021/10/30 01:37:32;;;;;;;5.50;2.80;;;;;;;17.84;53.37;99783.75;4152112;28;19921;-59
2021/10/30 01:39:34;;;;;;;;;;;;;;;17.88;53.70;99797.66;4147890;28;20268;-59
2021/10/30 01:41:37;;;;;;;6.20;3.28;;;;;;;17.84;53.20;99791.75;4147490;28;19922;-60
2021/10/30 01:43:40;;;;;;;5.15;2.92;;;;;;;17.89;53.26;99791.38;4147269;28;20099;-60
2021/10/30 01:45:44;;;;;;;6.28;3.28;;;;;;;17.89;53.04;99786.06;4147652;28;20501;-60
2021/10/30 01:47:46;;;;;;;5.65;3.20;;;;;;;17.84;53.03;99775.78;4147662;28;20050;-60
2021/10/30 01:49:49;;;;;;;5.35;3.10;;;;;;;17.86;52.93;99776.50;4147116;28;20119;-60
2021/10/30 01:51:51;;;;;;;;;;;;;;;17.86;53.59;99773.00;4147762;28;20468;-63
2021/10/30 01:53:53;;;;;;;7.72;2.90;;;;;;;17.84;53.53;99780.28;4147314;28;19922;-60
2021/10/30 01:55:56;;;;;;;5.13;3.35;;;;;;;17.85;53.37;99777.47;4147277;28;20050;-60
2021/10/30 01:57:59;;;;;;;4.80;3.00;;;;;;;17.81;53.12;99765.41;4147398;28;20050;-59
2021/10/30 02:00:01;;;;;;;5.40;3.00;;;;;;;17.81;53.00;99762.75;4146883;28;20062;-60
2021/10/30 02:02:03;;;;;;;5.53;3.25;;;;;;;17.80;53.39;99754.88;4147725;28;20145;-60
2021/10/30 02:04:05;;;;;;;5.38;2.85;;;;;;;17.85;53.28;99758.00;4147337;28;20053;-59
2021/10/30 02:06:08;;;;;;;;;;;;;;;17.83;53.66;99750.16;4147596;28;20390;-60
2021/10/30 02:08:10;;;;;;;4.68;2.67;;;;;;;17.76;53.30;99742.81;4146489;28;19989;-60
2021/10/30 02:10:14;;;;;;;5.97;3.40;;;;;;;17.82;53.21;99750.28;4146975;28;20552;-60
2021/10/30 02:12:16;;;;;;;4.90;2.75;;;;;;;17.71;53.25;99733.38;4147212;28;20046;-60
2021/10/30 02:14:18;;;;;;;;;;;;;;;17.81;53.79;99740.63;4147389;28;20590;-61
2021/10/30 02:16:20;;;;;;;6.55;3.08;;;;;;;17.74;53.06;99721.66;4146918;28;19929;-60
2021/10/30 02:18:23;;;;;;;;;;;;;;;17.78;53.86;99722.25;4147489;28;20042;-60
2021/10/30 02:20:25;;;;;;;4.93;2.67;;;;;;;17.66;53.69;99706.31;4146685;28;20569;-59
2021/10/30 02:22:27;;;;;;;4.80;2.72;;;;;;;17.76;53.14;99714.38;4146979;28;20501;-60
2021/10/30 02:24:29;;;;;;;;;;;;;;;17.77;53.84;99715.25;4147417;28;20042;-60
2021/10/30 02:26:31;;;;;;;4.47;2.65;;;;;;;17.73;53.59;99704.03;4145840;28;19921;-60
2021/10/30 02:28:33;;;;;;;;;;;;;;;17.74;53.80;99708.38;4146128;28;20042;-60
2021/10/30 02:30:36;;;;;;;5.35;2.78;;;;;;;17.72;53.38;99695.19;4146593;28;20413;-60
2021/10/30 02:32:38;;;;;;;5.55;3.08;;;;;;;17.72;53.46;99694.34;4146776;28;20469;-61
2021/10/30 02:34:40;;;;;;;;;;;;;;;17.73;53.94;99696.88;4147488;28;20092;-61
2021/10/30 02:36:42;;;;;;;5.05;3.00;;;;;;;17.68;53.70;99693.75;4146516;28;19921;-60
2021/10/30 02:38:44;;;;;;;;;;;;;;;17.71;53.96;99696.16;4151740;28;20108;-61
2021/10/30 02:40:46;;;;;;;5.80;2.90;;;;;;;17.70;53.43;99685.66;4146429;28;19921;-60
2021/10/30 02:42:48;;;;;;;;;;;;;;;17.70;54.05;99678.53;4147141;28;20050;-61
2021/10/30 02:44:50;;;;;;;5.13;2.60;;;;;;;17.69;53.40;99673.31;4146730;28;19952;-61
2021/10/30 02:46:52;;;;;;;4.95;2.40;;;;;;;17.64;53.59;99668.38;4146353;28;20103;-61
2021/10/30 02:48:55;;;;;;;4.60;2.45;;;;;;;17.69;53.51;99671.50;4146532;28;20046;-61
2021/10/30 02:50:57;;;;;;;4.85;2.42;;;;;;;17.63;53.92;99660.53;4146232;28;20038;-61
2021/10/30 02:53:00;;;;;;;4.60;2.78;;;;;;;17.72;53.65;99663.28;4146508;28;20053;-61
2021/10/30 02:55:02;;;;;;;;;;;;;;;17.70;54.01;99662.56;4147113;28;20050;-61
2021/10/30 02:57:04;;;;;;;5.43;2.67;;;;;;;17.66;53.54;99650.47;4146216;28;19977;-61
2021/10/30 02:59:07;;;;;;;4.60;2.50;;;;;;;17.69;53.58;99650.25;4146196;28;20054;-61
2021/10/30 03:01:09;;;;;;;4.85;2.78;;;;;;;17.68;53.56;99640.56;4146177;28;20045;-61
2021/10/30 03:03:11;;;;;;;4.78;2.63;;;;;;;17.67;53.43;99635.38;4146404;28;20189;-60
2021/10/30 03:05:13;;;;;;;;;;;;;;;17.69;54.27;99628.09;4146931;28;20049;-61
2021/10/30 03:07:15;;;;;;;3.85;2.33;;;;;;;17.67;53.81;99622.91;4146146;28;19921;-61
2021/10/30 03:09:17;;;;;;;4.05;2.45;;;;;;;17.68;53.59;99621.97;4146195;28;20054;-61
2021/10/30 03:11:19;;;;;;;;;;;;;;;17.67;53.88;99617.59;4146464;28;20050;-60
2021/10/30 03:13:21;;;;;;;4.88;2.78;;;;;;;17.64;53.60;99612.53;4146129;28;19968;-61
2021/10/30 03:15:23;;;;;;;4.70;2.50;;;;;;;17.61;53.85;99604.81;4146260;28;20675;-61
2021/10/30 03:17:25;;;;;;;4.93;2.90;;;;;;;17.63;53.70;99596.72;4145856;28;20042;-61
2021/10/30 03:19:27;;;;;;;;;;;;;;;17.64;53.85;99604.56;4146344;28;20050;-61
2021/10/30 03:21:30;;;;;;;4.97;2.42;;;;;;;17.63;53.43;99589.59;4145815;28;19922;-61
2021/10/30 03:23:32;;;;;;;4.47;2.88;;;;;;;17.64;53.51;99588.59;4146152;28;20054;-60
2021/10/30 03:25:34;;;;;;;4.25;2.47;;;;;;;17.61;53.73;99588.88;4146081;28;20046;-62
2021/10/30 03:27:37;;;;;;;4.80;2.80;;;;;;;17.61;54.02;99585.38;4145791;28;20410;-61
2021/10/30 03:29:39;;;;;;;4.60;2.53;;;;;;;17.65;53.96;99595.59;4145993;28;20100;-60
2021/10/30 03:31:41;;;;;;;;;;;;;;;17.63;54.05;99586.06;4146449;28;20046;-60
2021/10/30 03:33:44;;;;;;;3.92;2.30;;;;;;;17.57;53.69;99571.50;4146069;28;20336;-61
2021/10/30 03:35:46;;;;;;;4.30;2.53;;;;;;;17.62;53.98;99574.63;4146230;28;20509;-60
2021/10/30 03:37:48;;;;;;;;;;;;;;;17.61;54.21;99572.91;4146019;28;20042;-61
2021/10/30 03:39:50;;;;;;;3.65;2.13;;;;;;;17.56;53.73;99559.19;4145907;28;20600;-60
2021/10/30 03:41:52;;;;;;;;;;;;;;;17.59;54.27;99569.53;4146630;28;20050;-61
2021/10/30 03:43:54;;;;;;;4.97;2.35;;;;;;;17.51;53.61;99548.91;4145822;28;19925;-61
2021/10/30 03:45:56;;;;;;;4.20;2.65;;;;;;;17.51;54.03;99542.75;4145893;28;20046;-61
2021/10/30 03:48:03;;;;;;;4.82;2.20;;;;;;;17.61;53.83;99562.28;4145686;28;20444;-61
2021/10/30 03:50:06;;;;;;;4.85;2.50;;;;;;;17.60;53.57;99563.25;4145856;28;20099;-61
2021/10/30 03:52:08;;;;;;;4.00;2.22;;;;;;;17.62;53.58;99563.13;4145926;28;20096;-61
2021/10/30 03:54:10;;;;;;;;;;;;;;;17.59;54.15;99566.88;4145979;28;20054;-61
2021/10/30 03:56:12;;;;;;;4.22;2.40;;;;;;;17.46;53.81;99545.81;4145971;28;19925;-61
2021/10/30 03:58:14;;;;;;;;;;;;;;;17.57;54.28;99558.22;4146087;28;20586;-61
2021/10/30 04:00:16;;;;;;;4.68;2.38;;;;;;;17.54;53.55;99564.59;4144620;28;19922;-60
2021/10/30 04:02:19;;;;;;;;;;;;;;;17.56;54.03;99567.16;4146195;28;20045;-61
2021/10/30 04:04:21;;;;;;;4.25;2.35;;;;;;;17.54;53.75;99561.94;4145428;28;20345;-61
2021/10/30 04:06:23;;;;;;;;;;;;;;;17.55;54.34;99565.47;4146226;28;20042;-61
2021/10/30 04:08:25;;;;;;;4.28;2.40;;;;;;;17.54;53.96;99563.78;4145566;28;19929;-61
2021/10/30 04:10:27;;;;;;;;;;;;;;;17.55;54.06;99565.47;4145925;28;20046;-61
2021/10/30 04:12:29;;;;;;;4.15;2.28;;;;;;;17.49;53.72;99553.50;4145834;28;19987;-61
2021/10/30 04:14:31;;;;;;;3.90;2.20;;;;;;;17.55;53.98;99558.31;4145522;28;20088;-61
2021/10/30 04:16:34;;;;;;;4.70;2.30;;;;;;;17.50;53.84;99543.75;4145753;28;20414;-61
2021/10/30 04:18:36;;;;;;;3.38;1.88;;;;;;;17.56;53.65;99551.19;4145724;28;20608;-60
2021/10/30 04:20:38;;;;;;;4.85;2.30;;;;;;;17.53;53.80;99544.34;4145574;28;20061;-61
2021/10/30 04:22:41;;;;;;;;;;;;;;;17.54;54.12;99542.50;4146153;28;20045;-60
2021/10/30 04:24:43;;;;;;;4.63;2.20;;;;;;;17.49;53.77;99539.41;4145492;28;20420;-61
2021/10/30 04:26:45;;;;;;;5.03;2.10;;;;;;;17.53;53.80;99547.00;4145666;28;20101;-61
2021/10/30 04:28:47;;;;;;;4.55;2.45;;;;;;;17.49;53.93;99544.72;4145475;28;20053;-61
2021/10/30 04:30:49;;;;;;;;;;;;;;;17.52;54.14;99549.75;4146710;28;20185;-61
2021/10/30 04:32:51;;;;;;;5.05;2.65;;;;;;;17.50;53.97;99552.53;4148862;28;19922;-61
2021/10/30 04:35:02;;;;;;;;;;;;;;;17.49;54.14;99542.06;4148921;28;20046;-61
2021/10/30 04:37:13;;;;;;;4.82;2.35;;;;;;;17.42;53.95;99536.38;4150608;28;20557;-61
2021/10/30 04:39:18;;;;;;;5.13;2.40;;;;;;;17.41;54.26;99537.34;4149826;28;20104;-60
2021/10/30 04:41:21;;;;;;;4.30;2.00;;;;;;;17.50;54.20;99557.03;4148409;28;20042;-61
2021/10/30 04:43:23;;;;;;;3.90;2.30;;;;;;;17.50;54.13;99547.22;4148682;28;20053;-61
2021/10/30 04:45:25;;;;;;;;;;;;;;;17.49;54.41;99545.53;4148886;28;20092;-61
2021/10/30 04:47:27;;;;;;;3.85;2.30;;;;;;;17.46;54.09;99537.84;4148706;28;19952;-61
2021/10/30 04:49:30;;;;;;;4.18;2.50;;;;;;;17.43;54.11;99534.59;4148498;28;20046;-60
2021/10/30 04:51:31;;;;;;;;;;;;;;;17.47;54.24;99541.31;4148823;28;20498;-61
2021/10/30 04:53:35;;;;;;;4.10;2.20;;;;;;;17.40;54.24;99535.69;4147570;28;19921;-61
2021/10/30 04:55:37;;;;;;;4.32;2.30;;;;;;;17.46;54.18;99545.81;4148191;28;20038;-61
2021/10/30 04:57:39;;;;;;;;;;;;;;;17.46;54.44;99529.00;4149027;28;20085;-61
2021/10/30 04:59:41;;;;;;;4.68;2.25;;;;;;;17.32;54.28;99507.09;4148253;28;19921;-61
2021/10/30 05:01:43;;;;;;;;;;;;;;;17.43;54.29;99522.13;4148764;28;20061;-60
2021/10/30 05:03:45;;;;;;;3.70;2.13;;;;;;;17.42;53.89;99516.94;4148294;28;19932;-62
2021/10/30 05:05:47;;;;;;;;;;;;;;;17.42;54.66;99522.28;4148702;28;20045;-61
2021/10/30 05:07:50;;;;;;;3.88;2.25;;;;;;;17.33;54.38;99506.13;4148172;28;19932;-61
2021/10/30 05:09:52;;;;;;;4.80;2.42;;;;;;;17.37;54.35;99507.53;4148245;28;20042;-61
2021/10/30 05:11:54;;;;;;;5.03;2.30;;;;;;;17.39;54.28;99513.56;4148195;28;20561;-60
2021/10/30 05:13:56;;;;;;;;;;;;;;;17.42;54.57;99517.78;4148589;28;20050;-61
2021/10/30 05:15:58;;;;;;;5.50;2.50;;;;;;;17.35;54.05;99504.19;4147879;28;19922;-61
2021/10/30 05:18:00;;;;;;;;;;;;;;;17.39;54.65;99521.53;4148503;28;20046;-61
2021/10/30 05:20:03;;;;;;;3.67;2.33;;;;;;;17.38;54.24;99527.00;4148345;28;19975;-61
2021/10/30 05:22:05;;;;;;;5.07;2.47;;;;;;;17.31;54.08;99502.72;4147678;28;20041;-61
2021/10/30 05:24:07;;;;;;;;;;;;;;;17.39;54.46;99510.09;4148511;28;20049;-61
2021/10/30 05:26:09;;;;;;;4.38;2.35;;;;;;;17.37;54.23;99512.03;4147943;28;20502;-61
2021/10/30 05:28:11;;;;;;;4.40;2.20;;;;;;;17.37;54.20;99501.38;4147752;28;20472;-61
2021/10/30 05:30:13;;;;;;;;;;;;;;;17.38;54.46;99505.72;4148456;28;20049;-61
2021/10/30 05:32:15;;;;;;;4.03;2.20;;;;;;;17.31;54.15;99504.56;4147662;28;19944;-61
2021/10/30 05:34:17;;;;;;;5.15;2.55;;;;;;;17.37;54.38;99504.88;4147893;28;20042;-61
2021/10/30 05:36:23;;;;;;;3.75;2.05;;;;;;;17.37;54.31;99510.19;4147854;28;20046;-61
2021/10/30 05:38:26;;;;;;;4.75;2.15;;;;;;;17.33;54.26;99505.28;4149018;28;20046;-61
2021/10/30 05:40:28;;;;;;;5.22;2.20;;;;;;;17.30;54.37;99493.06;4147673;28;20413;-60
2021/10/30 05:42:30;;;;;;;;;;;;;;;17.36;54.45;99513.84;4147893;28;20042;-61
2021/10/30 05:44:33;;;;;;;5.00;2.22;;;;;;;17.32;54.45;99507.09;4147648;28;19922;-61
2021/10/30 05:46:38;;;;;;;4.10;2.50;;;;;;;17.36;54.32;99507.66;4147539;28;20107;-61
2021/10/30 05:48:41;;;;;;;4.25;2.17;;;;;;;17.36;54.11;99511.19;4147651;28;20053;-61
2021/10/30 05:50:46;;;;;;;4.95;2.30;;;;;;;17.38;54.37;99514.53;4147577;28;20410;-61
2021/10/30 05:52:48;;;;;;;;;;;;;;;17.36;54.68;99508.53;4147539;28;20050;-61
2021/10/30 05:54:50;;;;;;;5.25;2.20;;;;;;;17.13;54.26;99481.19;4147370;28;19925;-61
2021/10/30 05:56:52;;;;;;;;;;;;;;;17.33;54.90;99505.28;4147736;28;20398;-61
2021/10/30 05:58:54;;;;;;;5.20;2.10;;;;;;;17.31;54.65;99502.72;4147374;28;19921;-61
2021/10/30 06:00:56;;;;;;;;;;;;;;;17.31;54.62;99494.75;4147834;28;20050;-61
2021/10/30 06:02:59;;;;;;;4.80;2.17;;;;;;;17.31;54.77;99504.56;4146987;28;19921;-61
2021/10/30 06:05:01;;;;;;;4.03;2.00;;;;;;;17.32;54.34;99488.47;4147298;28;20069;-61
2021/10/30 06:07:04;;;;;;;4.20;2.20;;;;;;;17.30;54.23;99492.25;4147150;28;20103;-61
2021/10/30 06:09:06;;;;;;;5.18;2.20;;;;;;;17.23;54.48;99470.63;4147357;28;20421;-61
2021/10/30 06:11:08;;;;;;;4.18;2.05;;;;;;;17.33;54.35;99494.66;4147166;28;20046;-61
2021/10/30 06:13:10;;;;;;;3.92;1.95;;;;;;;17.29;54.48;99488.75;4146991;28;20107;-60
2021/10/30 06:15:12;;;;;;;;;;;;;;;17.31;54.74;99494.75;4147747;28;20092;-61
2021/10/30 06:17:14;;;;;;;4.05;2.13;;;;;;;17.22;54.62;99495.53;4147043;28;19979;-61
2021/10/30 06:19:16;;;;;;;4.35;2.08;;;;;;;17.26;54.42;99485.50;4145960;28;20046;-61
2021/10/30 06:21:18;;;;;;;;;;;;;;;17.30;54.76;99495.72;4147586;28;20042;-61
2021/10/30 06:23:20;;;;;;;5.43;2.13;;;;;;;17.28;54.73;99505.66;4146957;28;19921;-61
2021/10/30 06:25:22;;;;;;;4.85;2.28;;;;;;;17.22;54.62;99493.72;4147178;28;20045;-61
2021/10/30 06:27:24;;;;;;;;;;;;;;;17.28;55.09;99496.81;4147672;28;20108;-61
2021/10/30 06:29:28;;;;;;;3.35;2.00;;;;;;;17.17;54.71;99473.81;4147027;28;19922;-61
2021/10/30 06:31:30;;;;;;;3.38;1.80;;;;;;;17.22;54.60;99484.91;4146921;28;20115;-61
2021/10/30 06:33:32;;;;;;;;;;;;;;;17.27;54.61;99490.69;4147083;28;20038;-61
2021/10/30 06:35:34;;;;;;;3.63;1.80;;;;;;;17.27;54.92;99500.44;4146903;28;19925;-61
2021/10/30 06:37:39;;;;;;;4.82;2.15;;;;;;;17.26;54.84;99499.63;4151475;28;20041;-61
2021/10/30 06:39:41;;;;;;;3.67;1.83;;;;;;;17.25;54.51;99497.94;4146774;28;20041;-61
2021/10/30 06:41:43;;;;;;;;;;;;;;;17.28;54.84;99497.69;4147044;28;20046;-61
2021/10/30 06:43:45;;;;;;;3.97;1.80;;;;;;;17.24;54.72;99490.94;4146517;28;19976;-61
2021/10/30 06:45:47;;;;;;;;;;;;;;;17.25;55.01;99500.59;4147175;28;20099;-61
2021/10/30 06:47:49;;;;;;;4.15;2.10;;;;;;;17.18;54.71;99487.00;4146748;28;19928;-61
2021/10/30 06:49:52;;;;;;;;;;;;;;;17.24;55.21;99502.41;4146882;28;20415;-61
2021/10/30 06:51:55;;;;;;;5.03;1.88;;;;;;;17.12;54.85;99479.53;4146513;28;19921;-60
2021/10/30 06:53:57;;;;;;;4.63;2.20;;;;;;;17.21;54.61;99494.69;4146081;28;20038;-60
2021/10/30 06:55:59;;;;;;;;;;;;;;;17.25;55.14;99495.28;4146835;28;20100;-61
2021/10/30 06:58:02;;;;;;;4.00;2.03;;;;;;;17.19;54.94;99487.81;4146619;28;19921;-61
2021/10/30 07:00:07;;;;;;;3.22;1.70;;;;;;;17.24;54.71;99489.13;4146136;28;20112;-60
2021/10/30 07:02:11;;;;;;;4.28;1.95;;;;;;;17.17;54.55;99472.00;4146303;28;20046;-60
2021/10/30 07:04:13;;;;;;;3.75;1.65;;;;;;;17.22;54.55;99476.94;4146258;28;20046;-60
2021/10/30 07:06:15;;;;;;;3.42;1.92;;;;;;;17.26;55.07;99482.84;4146164;28;20096;-61
2021/10/30 07:08:17;;;;;;;;;;;;;;;17.25;55.06;99487.31;4147034;28;20046;-61
2021/10/30 07:10:20;;;;;;;3.20;1.80;;;;;;;17.20;54.77;99468.25;4146134;28;20293;-61
2021/10/30 07:12:22;;;;;;;3.55;1.88;;;;;;;17.24;54.54;99477.63;4146124;28;20050;-61
2021/10/30 07:14:24;;;;;;;4.05;2.00;;;;;;;17.24;54.74;99473.19;4146142;28;20054;-61
2021/10/30 07:16:26;;;;;;;;;;;;;;;17.24;55.08;99481.16;4146483;28;20046;-61
2021/10/30 07:18:28;;;;;;;4.25;1.98;;;;;;;17.17;54.91;99481.78;4146480;28;19922;-61
2021/10/30 07:20:30;;;;;;;4.47;1.85;;;;;;;17.24;54.84;99482.97;4145998;28;20093;-60
2021/10/30 07:22:45;;;;;;;5.28;1.80;;;;;;;17.23;54.98;99487.44;4146164;28;20053;-60
2021/10/30 07:24:47;;;;;;;3.60;1.73;;;;;;;17.20;54.91;99490.34;4145894;28;20107;-60
2021/10/30 07:26:49;;;;;;;3.42;1.80;;;;;;;17.24;54.66;99488.28;4146059;28;20509;-60
2021/10/30 07:28:51;;;;;;;;;;;;;;;17.22;54.98;99485.75;4146508;28;20076;-60
2021/10/30 07:30:53;;;;;;;4.35;1.98;;;;;;;17.22;54.74;99492.88;4146094;28;20034;-60
2021/10/30 07:32:56;;;;;;;3.58;1.70;;;;;;;17.21;54.92;99480.56;4146212;28;20124;-60
2021/10/30 07:34:58;;;;;;;;;;;;;;;17.21;54.97;99484.06;4146260;28;20041;-60
2021/10/30 07:37:00;;;;;;;3.80;1.80;;;;;;;17.19;55.17;99482.50;4147463;28;19921;-60
2021/10/30 07:39:03;;;;;;;3.95;1.80;;;;;;;17.15;55.00;99486.41;4148963;28;20104;-60
2021/10/30 07:41:05;;;;;;;3.08;1.60;;;;;;;17.13;54.64;99483.00;4145659;28;20038;-60
2021/10/30 07:43:07;;;;;;;3.70;1.65;;;;;;;17.12;54.74;99476.00;4145928;28;20050;-60
2021/10/30 07:45:10;;;;;;;3.22;1.50;;;;;;;17.16;54.68;99475.63;4146059;28;20091;-60
2021/10/30 07:47:12;;;;;;;4.03;1.77;;;;;;;17.23;54.94;99490.09;4144856;28;20494;-60
2021/10/30 07:49:14;;;;;;;3.85;1.70;;;;;;;17.16;55.00;99498.72;4146118;28;20048;-59
2021/10/30 07:51:16;;;;;;;4.53;1.80;;;;;;;17.21;54.75;99513.28;4145606;28;20131;-60
2021/10/30 07:53:19;;;;;;;4.07;1.73;;;;;;;17.21;54.97;99507.13;4145588;28;20046;-60
2021/10/30 07:55:21;;;;;;;3.38;1.60;;;;;;;17.24;54.72;99522.81;4145905;28;20050;-60
2021/10/30 07:57:24;;;;;;;3.97;2.00;;;;;;;17.16;55.00;99501.38;4145510;28;20394;-60
2021/10/30 07:59:26;;;;;;;3.53;1.65;;;;;;;17.19;54.79;99509.94;4145666;28;20058;-60
2021/10/30 08:01:28;;;;;;;;;;;;;;;17.23;55.12;99529.09;4146105;28;20413;-60
2021/10/30 08:03:30;;;;;;;3.00;1.63;;;;;;;17.20;54.88;99519.56;4145744;28;20377;-60
2021/10/30 08:05:32;;;;;;;;;;;;;;;17.21;54.95;99520.44;4146469;28;20042;-60
2021/10/30 08:07:35;;;;;;;2.83;1.30;;;;;;;17.19;55.12;99520.56;4148682;28;20013;-60
2021/10/30 08:09:37;;;;;;;5.13;1.60;;;;;;;17.22;54.97;99522.13;4148998;28;20103;-60
2021/10/30 08:11:39;;;;;;;3.65;1.52;;;;;;;17.18;54.64;99518.88;4148890;28;20080;-60
2021/10/30 08:13:41;;;;;;;;;;;;;;;17.21;55.40;99531.06;4149126;28;20053;-60
2021/10/30 08:15:43;;;;;;;3.40;1.58;;;;;;;17.15;55.14;99531.56;4149047;28;19975;-60
2021/10/30 08:17:46;;;;;;;4.13;1.63;;;;;;;17.16;54.82;99526.13;4148608;28;20097;-60
2021/10/30 08:19:47;;;;;;;;;;;;;;;17.20;55.42;99534.69;4149305;28;20164;-60
2021/10/30 08:21:49;;;;;;;4.55;1.70;;;;;;;17.12;55.21;99530.00;4148706;28;19926;-60
2021/10/30 08:23:51;;;;;;;;;;;;;;;17.19;55.52;99547.13;4149362;28;20054;-60
2021/10/30 08:25:56;;;;;;;3.35;1.50;;;;;;;17.02;54.84;99511.31;4149244;28;19929;-60
2021/10/30 08:27:58;;;;;;;;;;;;;;;17.18;55.28;99539.25;4148871;28;20460;-60
2021/10/30 08:30:01;;;;;;;4.45;1.40;;;;;;;17.18;55.32;99542.78;4148757;28;19999;-60
2021/10/30 08:32:05;;;;;;;3.45;1.60;;;;;;;17.16;54.91;99531.44;4148738;28;20495;-61
2021/10/30 08:34:07;;;;;;;3.13;1.25;;;;;;;17.13;55.04;99530.84;4148662;28;20083;-60
2021/10/30 08:36:09;;;;;;;3.00;1.40;;;;;;;17.19;55.07;99530.31;4148545;28;20046;-60
2021/10/30 08:38:13;;;;;;;;;;;;;;;17.21;55.32;99539.03;4148478;28;20099;-61
2021/10/30 08:40:17;;;;;;;4.32;1.40;;;;;;;17.08;54.87;99521.44;4148553;28;19921;-60
2021/10/30 08:42:43;;;;;;;4.15;1.50;;;;;;;17.20;55.04;99535.50;4148246;28;20109;-61
2021/10/30 08:44:45;;;;;;;3.55;1.52;;;;;;;17.22;54.99;99544.19;4138341;28;20544;-61
2021/10/30 08:46:51;;;;;;;3.40;1.60;;;;;;;17.23;55.08;99540.59;4148583;28;20084;-60
2021/10/30 08:48:54;;;;;;;3.17;1.30;;;;;;;17.24;54.95;99538.75;4148218;28;20057;-61
2021/10/30 08:50:57;;;;;;;3.22;1.42;;;;;;;17.24;55.09;99541.41;4148498;28;20080;-61
2021/10/30 08:53:00;;;;;;;3.58;1.50;;;;;;;17.14;54.76;99513.94;4148388;28;20490;-61
2021/10/30 08:55:07;;;;;;;3.42;1.70;;;;;;;17.20;55.05;99521.41;4137791;28;20057;-61
2021/10/30 08:57:09;;;;;;;2.72;1.40;;;;;;;17.22;55.03;99535.41;4148610;28;20046;-61
2021/10/30 08:59:12;;;;;;;;;;;;;;;17.24;55.36;99541.41;4147903;28;20086;-61
2021/10/30 09:01:14;;;;;;;3.42;1.60;;;;;;;17.05;54.88;99515.53;4147273;28;19921;-60
2021/10/30 09:03:21;;;;;;;3.25;1.52;;;;;;;17.24;54.92;99550.25;4146927;28;20045;-60
2021/10/30 09:05:24;;;;;;;3.50;1.40;;;;;;;17.22;55.25;99551.34;4130918;28;20710;-60
2021/10/30 09:07:26;;;;;;;3.10;1.30;;;;;;;17.18;55.06;99525.97;4145959;28;20640;-61
2021/10/30 09:09:28;;;;;;;;;;;;;;;17.24;55.50;99541.41;4144261;28;20038;-61
2021/10/30 09:11:30;;;;;;;3.35;1.58;;;;;;;17.15;55.17;99524.41;4147517;28;19921;-63
2021/10/30 09:13:32;;;;;;;3.88;1.45;;;;;;;17.23;55.08;99539.72;4147167;28;20047;-60
2021/10/30 09:15:37;;;;;;;;;;;;;;;17.24;55.83;99541.41;4143832;28;20049;-62
2021/10/30 09:17:41;;;;;;;3.10;1.40;;;;;;;17.21;55.61;99536.38;4137019;28;19921;-65
2021/10/30 09:19:49;;;;;;;6.32;1.55;;;;;;;17.27;54.95;99541.16;4140638;28;20490;-64
2021/10/30 09:22:05;;;;;;;6.63;1.80;;;;;;;17.31;55.53;99537.28;4144252;28;20050;-62
2021/10/30 09:24:12;;;;;;;7.63;1.70;;;;;;;17.28;55.38;99529.56;4136637;28;20497;-62
2021/10/30 09:26:51;;;;;;;6.88;1.73;;;;;;;17.32;55.89;99536.31;4145525;28;20084;-64
2021/10/30 09:29:04;;;;;;;7.65;1.70;;;;;;;17.29;56.31;99539.25;4145713;28;20100;-63
2021/10/30 09:31:11;;;;;;;6.88;2.03;;;;;;;17.36;55.96;99550.19;4145823;28;20469;-65
2021/10/30 09:33:13;;;;;;;7.13;1.70;;;;;;;17.38;56.39;99543.78;4129806;28;20529;-64
2021/10/30 09:35:20;;;;;;;;;;;;;;;17.39;56.96;99556.09;4143411;28;20049;-64
2021/10/30 09:37:24;;;;;;;4.28;1.45;;;;;;;17.33;56.46;99545.97;4151185;28;19921;-65
2021/10/30 09:39:26;;;;;;;4.70;1.73;;;;;;;17.44;56.39;99561.03;4146801;28;20073;-64
2021/10/30 09:41:40;;;;;;;3.95;1.70;;;;;;;17.46;56.03;99559.09;4147004;28;20042;-64
2021/10/30 09:43:53;;;;;;;6.78;1.88;;;;;;;17.42;56.86;99540.88;4147037;28;20045;-71
2021/10/30 09:46:03;;;;;;;6.78;1.80;;;;;;;17.29;56.76;99525.97;4146881;28;20050;-71
2021/10/30 09:48:08;;;;;;;3.67;1.70;;;;;;;17.43;56.79;99547.88;4130800;28;20219;-73
2021/10/30 09:50:25;;;;;;;4.63;1.60;;;;;;;17.32;56.80;99525.69;4137867;28;20417;-69
2021/10/30 09:52:28;;;;;;;5.55;1.83;;;;;;;17.17;55.90;99501.25;4146646;28;20504;-66